sensor_id;sensor_type;location;lat;lon;timestamp;P1;durP1;ratioP1;P2;durP2;ratioP2
79664;SDS011;69132;44.014;20.918;2023-08-06T07:09:13;6.55;;;3.70;;
79664;SDS011;69132;44.014;20.918;2023-08-06T07:11:39;6.45;;;3.80;;
79664;SDS011;69132;44.014;20.918;2023-08-06T07:14:08;5.43;;;4.20;;
79664;SDS011;69132;44.014;20.918;2023-08-06T07:16:34;7.15;;;4.80;;
79664;SDS011;69132;44.014;20.918;2023-08-06T07:19:03;5.00;;;4.25;;
79664;SDS011;69132;44.014;20.918;2023-08-06T07:21:30;4.25;;;3.90;;
79664;SDS011;69132;44.014;20.918;2023-08-06T07:23:58;7.47;;;4.43;;
79664;SDS011;69132;44.014;20.918;2023-08-06T07:28:50;6.65;;;4.72;;
79664;SDS011;69132;44.014;20.918;2023-08-06T07:31:16;6.50;;;5.82;;
79664;SDS011;69132;44.014;20.918;2023-08-06T07:33:43;8.35;;;6.68;;
79664;SDS011;69132;44.014;20.918;2023-08-06T07:36:10;10.57;;;7.07;;
79664;SDS011;69132;44.014;20.918;2023-08-06T07:38:38;9.95;;;7.57;;
79664;SDS011;69132;44.014;20.918;2023-08-06T07:41:04;8.90;;;8.00;;
79664;SDS011;69132;44.014;20.918;2023-08-06T07:43:30;9.88;;;7.95;;
79664;SDS011;69132;44.014;20.918;2023-08-06T07:45:58;11.47;;;8.47;;
79664;SDS011;69132;44.014;20.918;2023-08-06T07:48:27;13.80;;;8.82;;
79664;SDS011;69132;44.014;20.918;2023-08-06T07:50:54;11.45;;;9.20;;
79664;SDS011;69132;44.014;20.918;2023-08-06T07:53:23;12.43;;;9.70;;
79664;SDS011;69132;44.014;20.918;2023-08-06T07:55:55;12.45;;;10.43;;
79664;SDS011;69132;44.014;20.918;2023-08-06T07:58:22;8.90;;;7.55;;
79664;SDS011;69132;44.014;20.918;2023-08-06T08:00:49;10.65;;;8.05;;
79664;SDS011;69132;44.014;20.918;2023-08-06T08:03:15;11.02;;;9.27;;
79664;SDS011;69132;44.014;20.918;2023-08-06T08:05:44;8.77;;;7.88;;
79664;SDS011;69132;44.014;20.918;2023-08-06T08:08:11;9.43;;;8.00;;
79664;SDS011;69132;44.014;20.918;2023-08-06T08:10:37;9.93;;;8.35;;
79664;SDS011;69132;44.014;20.918;2023-08-06T08:13:04;11.70;;;8.90;;
79664;SDS011;69132;44.014;20.918;2023-08-06T08:15:30;10.55;;;8.82;;
79664;SDS011;69132;44.014;20.918;2023-08-06T08:17:57;12.85;;;9.88;;
79664;SDS011;69132;44.014;20.918;2023-08-06T08:20:23;11.93;;;10.20;;
79664;SDS011;69132;44.014;20.918;2023-08-06T08:22:49;13.27;;;11.05;;
79664;SDS011;69132;44.014;20.918;2023-08-06T08:25:15;10.98;;;9.88;;
79664;SDS011;69132;44.014;20.918;2023-08-06T08:27:41;14.65;;;11.52;;
79664;SDS011;69132;44.014;20.918;2023-08-06T08:30:07;12.02;;;10.82;;
79664;SDS011;69132;44.014;20.918;2023-08-06T08:32:34;14.10;;;12.05;;
79664;SDS011;69132;44.014;20.918;2023-08-06T08:35:01;12.07;;;9.93;;
79664;SDS011;69132;44.014;20.918;2023-08-06T08:37:28;11.27;;;10.18;;
79664;SDS011;69132;44.014;20.918;2023-08-06T08:39:54;11.68;;;10.23;;
79664;SDS011;69132;44.014;20.918;2023-08-06T08:42:21;10.88;;;9.75;;
79664;SDS011;69132;44.014;20.918;2023-08-06T08:44:47;11.48;;;10.38;;
79664;SDS011;69132;44.014;20.918;2023-08-06T08:47:13;13.32;;;11.20;;
79664;SDS011;69132;44.014;20.918;2023-08-06T08:49:41;12.10;;;10.88;;
79664;SDS011;69132;44.014;20.918;2023-08-06T08:52:09;16.75;;;12.40;;
79664;SDS011;69132;44.014;20.918;2023-08-06T08:54:39;15.48;;;13.13;;
79664;SDS011;69132;44.014;20.918;2023-08-06T08:57:05;18.83;;;15.88;;
79664;SDS011;69132;44.014;20.918;2023-08-06T08:59:33;16.15;;;14.52;;
79664;SDS011;69132;44.014;20.918;2023-08-06T09:02:00;15.32;;;13.82;;
79664;SDS011;69132;44.014;20.918;2023-08-06T09:04:28;15.65;;;14.05;;
79664;SDS011;69132;44.014;20.918;2023-08-06T09:07:00;14.98;;;13.48;;
79664;SDS011;69132;44.014;20.918;2023-08-06T09:09:27;15.50;;;14.05;;
79664;SDS011;69132;44.014;20.918;2023-08-06T09:11:55;15.00;;;13.55;;
79664;SDS011;69132;44.014;20.918;2023-08-06T09:14:26;15.38;;;13.77;;
79664;SDS011;69132;44.014;20.918;2023-08-06T09:16:52;15.45;;;13.95;;
79664;SDS011;69132;44.014;20.918;2023-08-06T09:19:19;15.23;;;13.82;;
79664;SDS011;69132;44.014;20.918;2023-08-06T09:21:50;16.05;;;14.48;;
79664;SDS011;69132;44.014;20.918;2023-08-06T09:24:18;23.52;;;15.23;;
79664;SDS011;69132;44.014;20.918;2023-08-06T09:26:49;17.55;;;14.48;;
79664;SDS011;69132;44.014;20.918;2023-08-06T09:29:16;15.65;;;14.07;;
79664;SDS011;69132;44.014;20.918;2023-08-06T09:31:43;17.50;;;15.38;;
79664;SDS011;69132;44.014;20.918;2023-08-06T09:36:48;16.63;;;14.98;;
79664;SDS011;69132;44.014;20.918;2023-08-06T09:39:16;17.90;;;16.10;;
79664;SDS011;69132;44.014;20.918;2023-08-06T09:41:42;17.10;;;15.43;;
79664;SDS011;69132;44.014;20.918;2023-08-06T09:44:18;17.58;;;15.68;;
79664;SDS011;69132;44.014;20.918;2023-08-06T09:46:48;14.77;;;13.38;;
79664;SDS011;69132;44.014;20.918;2023-08-06T09:49:14;16.52;;;14.93;;
79664;SDS011;69132;44.014;20.918;2023-08-06T09:51:41;17.52;;;15.68;;
79664;SDS011;69132;44.014;20.918;2023-08-06T09:54:07;14.18;;;12.80;;
79664;SDS011;69132;44.014;20.918;2023-08-06T09:56:37;14.48;;;13.07;;
79664;SDS011;69132;44.014;20.918;2023-08-06T09:59:07;14.25;;;13.05;;
79664;SDS011;69132;44.014;20.918;2023-08-06T10:01:34;14.48;;;13.18;;
79664;SDS011;69132;44.014;20.918;2023-08-06T10:04:04;17.50;;;15.70;;
79664;SDS011;69132;44.014;20.918;2023-08-06T10:06:34;17.38;;;15.68;;
79664;SDS011;69132;44.014;20.918;2023-08-06T10:09:04;15.38;;;13.98;;
79664;SDS011;69132;44.014;20.918;2023-08-06T10:11:30;16.58;;;15.07;;
79664;SDS011;69132;44.014;20.918;2023-08-06T10:16:34;12.93;;;11.57;;
79664;SDS011;69132;44.014;20.918;2023-08-06T10:19:01;14.23;;;12.93;;
79664;SDS011;69132;44.014;20.918;2023-08-06T10:21:27;14.10;;;12.80;;
79664;SDS011;69132;44.014;20.918;2023-08-06T10:26:30;14.77;;;13.30;;
79664;SDS011;69132;44.014;20.918;2023-08-06T10:28:56;13.65;;;12.32;;
79664;SDS011;69132;44.014;20.918;2023-08-06T10:34:08;13.77;;;12.48;;
79664;SDS011;69132;44.014;20.918;2023-08-06T10:36:35;12.82;;;11.70;;
79664;SDS011;69132;44.014;20.918;2023-08-06T10:39:01;13.32;;;11.80;;
79664;SDS011;69132;44.014;20.918;2023-08-06T10:41:29;14.43;;;12.13;;
79664;SDS011;69132;44.014;20.918;2023-08-06T10:44:10;13.48;;;12.07;;
79664;SDS011;69132;44.014;20.918;2023-08-06T10:46:36;13.63;;;12.32;;
79664;SDS011;69132;44.014;20.918;2023-08-06T10:49:05;13.85;;;12.57;;
79664;SDS011;69132;44.014;20.918;2023-08-06T10:51:32;14.20;;;12.90;;
79664;SDS011;69132;44.014;20.918;2023-08-06T10:53:59;14.55;;;13.10;;
79664;SDS011;69132;44.014;20.918;2023-08-06T10:56:25;14.32;;;12.90;;
79664;SDS011;69132;44.014;20.918;2023-08-06T10:58:55;13.10;;;11.50;;
79664;SDS011;69132;44.014;20.918;2023-08-06T11:01:22;12.50;;;11.30;;
79664;SDS011;69132;44.014;20.918;2023-08-06T11:03:49;13.98;;;12.73;;
79664;SDS011;69132;44.014;20.918;2023-08-06T11:06:21;14.77;;;13.23;;
79664;SDS011;69132;44.014;20.918;2023-08-06T11:08:57;15.65;;;14.23;;
79664;SDS011;69132;44.014;20.918;2023-08-06T11:11:25;15.40;;;13.90;;
79664;SDS011;69132;44.014;20.918;2023-08-06T11:13:51;14.88;;;13.40;;
79664;SDS011;69132;44.014;20.918;2023-08-06T11:16:19;14.40;;;13.10;;
79664;SDS011;69132;44.014;20.918;2023-08-06T11:18:46;15.48;;;13.93;;
79664;SDS011;69132;44.014;20.918;2023-08-06T11:21:20;14.38;;;12.98;;
79664;SDS011;69132;44.014;20.918;2023-08-06T11:23:46;15.93;;;14.43;;
79664;SDS011;69132;44.014;20.918;2023-08-06T11:26:13;16.10;;;14.60;;
79664;SDS011;69132;44.014;20.918;2023-08-06T11:28:45;13.48;;;12.07;;
79664;SDS011;69132;44.014;20.918;2023-08-06T11:31:22;12.80;;;11.47;;
79664;SDS011;69132;44.014;20.918;2023-08-06T11:33:49;11.82;;;10.75;;
79664;SDS011;69132;44.014;20.918;2023-08-06T11:36:16;13.95;;;11.88;;
79664;SDS011;69132;44.014;20.918;2023-08-06T11:38:42;13.15;;;11.52;;
79664;SDS011;69132;44.014;20.918;2023-08-06T11:41:08;12.13;;;11.02;;
79664;SDS011;69132;44.014;20.918;2023-08-06T11:43:34;11.80;;;10.65;;
79664;SDS011;69132;44.014;20.918;2023-08-06T11:46:00;10.90;;;9.93;;
79664;SDS011;69132;44.014;20.918;2023-08-06T11:48:27;11.82;;;10.63;;
79664;SDS011;69132;44.014;20.918;2023-08-06T11:50:56;11.20;;;10.10;;
79664;SDS011;69132;44.014;20.918;2023-08-06T11:53:26;10.43;;;9.52;;
79664;SDS011;69132;44.014;20.918;2023-08-06T11:55:54;11.02;;;10.13;;
79664;SDS011;69132;44.014;20.918;2023-08-06T11:58:20;11.85;;;10.75;;
79664;SDS011;69132;44.014;20.918;2023-08-06T12:00:46;12.40;;;11.02;;
79664;SDS011;69132;44.014;20.918;2023-08-06T12:03:13;11.95;;;10.95;;
79664;SDS011;69132;44.014;20.918;2023-08-06T12:05:45;12.75;;;11.27;;
79664;SDS011;69132;44.014;20.918;2023-08-06T12:08:12;11.40;;;10.40;;
79664;SDS011;69132;44.014;20.918;2023-08-06T12:10:38;12.43;;;11.23;;
79664;SDS011;69132;44.014;20.918;2023-08-06T12:13:04;15.73;;;14.07;;
79664;SDS011;69132;44.014;20.918;2023-08-06T12:15:31;12.63;;;11.43;;
79664;SDS011;69132;44.014;20.918;2023-08-06T12:17:57;10.88;;;9.88;;
79664;SDS011;69132;44.014;20.918;2023-08-06T12:20:23;12.02;;;10.07;;
79664;SDS011;69132;44.014;20.918;2023-08-06T12:22:50;10.32;;;9.45;;
79664;SDS011;69132;44.014;20.918;2023-08-06T12:25:16;9.45;;;8.52;;
79664;SDS011;69132;44.014;20.918;2023-08-06T12:27:43;9.30;;;8.50;;
79664;SDS011;69132;44.014;20.918;2023-08-06T12:30:09;9.60;;;8.70;;
79664;SDS011;69132;44.014;20.918;2023-08-06T12:32:39;9.70;;;8.82;;
79664;SDS011;69132;44.014;20.918;2023-08-06T12:35:05;10.25;;;9.35;;
79664;SDS011;69132;44.014;20.918;2023-08-06T12:37:33;11.30;;;10.20;;
79664;SDS011;69132;44.014;20.918;2023-08-06T12:39:59;11.50;;;10.48;;
79664;SDS011;69132;44.014;20.918;2023-08-06T12:42:26;10.75;;;9.75;;
79664;SDS011;69132;44.014;20.918;2023-08-06T12:44:52;10.48;;;9.48;;
79664;SDS011;69132;44.014;20.918;2023-08-06T12:47:21;11.40;;;10.40;;
79664;SDS011;69132;44.014;20.918;2023-08-06T12:49:47;10.95;;;10.05;;
79664;SDS011;69132;44.014;20.918;2023-08-06T12:52:15;10.85;;;9.90;;
79664;SDS011;69132;44.014;20.918;2023-08-06T12:54:44;11.13;;;10.02;;
79664;SDS011;69132;44.014;20.918;2023-08-06T12:57:11;10.32;;;9.40;;
79664;SDS011;69132;44.014;20.918;2023-08-06T12:59:37;10.25;;;9.38;;
79664;SDS011;69132;44.014;20.918;2023-08-06T13:02:04;10.77;;;9.80;;
79664;SDS011;69132;44.014;20.918;2023-08-06T13:04:30;10.40;;;9.50;;
79664;SDS011;69132;44.014;20.918;2023-08-06T13:06:59;12.13;;;11.02;;
79664;SDS011;69132;44.014;20.918;2023-08-06T13:09:25;11.90;;;10.75;;
79664;SDS011;69132;44.014;20.918;2023-08-06T13:11:52;13.47;;;11.53;;
79664;SDS011;69132;44.014;20.918;2023-08-06T13:14:20;12.67;;;11.37;;
79664;SDS011;69132;44.014;20.918;2023-08-06T13:16:46;13.40;;;11.80;;
79664;SDS011;69132;44.014;20.918;2023-08-06T13:19:13;12.27;;;11.07;;
79664;SDS011;69132;44.014;20.918;2023-08-06T13:24:15;14.43;;;12.75;;
79664;SDS011;69132;44.014;20.918;2023-08-06T13:26:42;13.90;;;12.45;;
79664;SDS011;69132;44.014;20.918;2023-08-06T13:29:08;14.32;;;13.02;;
79664;SDS011;69132;44.014;20.918;2023-08-06T13:31:37;14.00;;;12.60;;
79664;SDS011;69132;44.014;20.918;2023-08-06T13:34:03;15.10;;;13.52;;
79664;SDS011;69132;44.014;20.918;2023-08-06T13:36:29;13.75;;;12.45;;
79664;SDS011;69132;44.014;20.918;2023-08-06T13:38:56;14.80;;;13.40;;
79664;SDS011;69132;44.014;20.918;2023-08-06T13:41:22;15.02;;;13.52;;
79664;SDS011;69132;44.014;20.918;2023-08-06T13:43:49;14.27;;;12.77;;
79664;SDS011;69132;44.014;20.918;2023-08-06T13:46:15;12.80;;;11.48;;
79664;SDS011;69132;44.014;20.918;2023-08-06T13:48:43;11.70;;;10.68;;
79664;SDS011;69132;44.014;20.918;2023-08-06T13:51:09;13.63;;;12.30;;
79664;SDS011;69132;44.014;20.918;2023-08-06T13:53:37;14.43;;;13.13;;
79664;SDS011;69132;44.014;20.918;2023-08-06T13:56:07;14.82;;;13.30;;
79664;SDS011;69132;44.014;20.918;2023-08-06T13:58:34;13.88;;;12.25;;
79664;SDS011;69132;44.014;20.918;2023-08-06T14:01:01;12.45;;;11.32;;
79664;SDS011;69132;44.014;20.918;2023-08-06T14:03:30;12.20;;;11.00;;
79664;SDS011;69132;44.014;20.918;2023-08-06T14:05:57;12.27;;;11.18;;
79664;SDS011;69132;44.014;20.918;2023-08-06T14:08:23;12.23;;;10.97;;
79664;SDS011;69132;44.014;20.918;2023-08-06T14:10:51;10.82;;;9.73;;
79664;SDS011;69132;44.014;20.918;2023-08-06T14:13:18;10.90;;;9.80;;
79664;SDS011;69132;44.014;20.918;2023-08-06T14:15:44;11.68;;;10.20;;
79664;SDS011;69132;44.014;20.918;2023-08-06T14:18:14;11.85;;;10.65;;
79664;SDS011;69132;44.014;20.918;2023-08-06T14:20:41;11.00;;;9.90;;
79664;SDS011;69132;44.014;20.918;2023-08-06T14:23:08;10.80;;;9.80;;
79664;SDS011;69132;44.014;20.918;2023-08-06T14:25:34;11.20;;;10.15;;
79664;SDS011;69132;44.014;20.918;2023-08-06T14:28:00;12.07;;;10.88;;
79664;SDS011;69132;44.014;20.918;2023-08-06T14:30:26;10.95;;;9.95;;
79664;SDS011;69132;44.014;20.918;2023-08-06T14:32:52;10.27;;;9.38;;
79664;SDS011;69132;44.014;20.918;2023-08-06T14:35:18;9.45;;;8.52;;
79664;SDS011;69132;44.014;20.918;2023-08-06T14:37:46;8.95;;;8.20;;
79664;SDS011;69132;44.014;20.918;2023-08-06T14:40:12;10.00;;;9.10;;
79664;SDS011;69132;44.014;20.918;2023-08-06T14:42:38;9.75;;;8.90;;
79664;SDS011;69132;44.014;20.918;2023-08-06T14:45:05;10.05;;;9.20;;
79664;SDS011;69132;44.014;20.918;2023-08-06T14:47:33;10.35;;;9.50;;
79664;SDS011;69132;44.014;20.918;2023-08-06T14:50:02;10.68;;;9.65;;
79664;SDS011;69132;44.014;20.918;2023-08-06T14:52:29;9.50;;;8.60;;
79664;SDS011;69132;44.014;20.918;2023-08-06T14:54:56;11.23;;;9.60;;
79664;SDS011;69132;44.014;20.918;2023-08-06T14:57:22;9.80;;;9.00;;
79664;SDS011;69132;44.014;20.918;2023-08-06T14:59:53;9.43;;;8.60;;
79664;SDS011;69132;44.014;20.918;2023-08-06T15:02:22;10.10;;;9.02;;
79664;SDS011;69132;44.014;20.918;2023-08-06T15:04:48;9.90;;;8.98;;
79664;SDS011;69132;44.014;20.918;2023-08-06T15:07:15;11.57;;;10.27;;
79664;SDS011;69132;44.014;20.918;2023-08-06T15:09:41;12.13;;;10.32;;
79664;SDS011;69132;44.014;20.918;2023-08-06T15:12:09;12.40;;;11.07;;
79664;SDS011;69132;44.014;20.918;2023-08-06T15:14:35;11.10;;;10.10;;
79664;SDS011;69132;44.014;20.918;2023-08-06T15:17:02;13.38;;;10.48;;
79664;SDS011;69132;44.014;20.918;2023-08-06T15:19:28;14.82;;;10.98;;
79664;SDS011;69132;44.014;20.918;2023-08-06T15:21:55;13.48;;;12.07;;
79664;SDS011;69132;44.014;20.918;2023-08-06T15:24:21;13.93;;;12.43;;
79664;SDS011;69132;44.014;20.918;2023-08-06T15:26:48;15.35;;;13.85;;
79664;SDS011;69132;44.014;20.918;2023-08-06T15:29:14;21.90;;;14.25;;
79664;SDS011;69132;44.014;20.918;2023-08-06T15:31:40;19.27;;;13.60;;
79664;SDS011;69132;44.014;20.918;2023-08-06T15:34:06;13.02;;;11.52;;
79664;SDS011;69132;44.014;20.918;2023-08-06T15:36:34;13.88;;;11.90;;
79664;SDS011;69132;44.014;20.918;2023-08-06T15:39:00;14.02;;;12.27;;
79664;SDS011;69132;44.014;20.918;2023-08-06T15:41:26;9.55;;;8.45;;
79664;SDS011;69132;44.014;20.918;2023-08-06T15:43:52;8.38;;;7.55;;
79664;SDS011;69132;44.014;20.918;2023-08-06T15:46:18;9.32;;;7.88;;
79664;SDS011;69132;44.014;20.918;2023-08-06T15:48:44;10.63;;;9.60;;
79664;SDS011;69132;44.014;20.918;2023-08-06T15:51:11;10.80;;;9.27;;
79664;SDS011;69132;44.014;20.918;2023-08-06T15:53:37;11.32;;;9.65;;
79664;SDS011;69132;44.014;20.918;2023-08-06T15:56:03;13.65;;;10.30;;
79664;SDS011;69132;44.014;20.918;2023-08-06T15:58:30;9.90;;;8.90;;
79664;SDS011;69132;44.014;20.918;2023-08-06T16:00:57;10.05;;;9.05;;
79664;SDS011;69132;44.014;20.918;2023-08-06T16:03:23;11.82;;;9.68;;
79664;SDS011;69132;44.014;20.918;2023-08-06T16:05:50;10.50;;;9.50;;
79664;SDS011;69132;44.014;20.918;2023-08-06T16:08:16;11.52;;;9.98;;
79664;SDS011;69132;44.014;20.918;2023-08-06T16:10:43;13.88;;;11.70;;
79664;SDS011;69132;44.014;20.918;2023-08-06T16:13:10;12.38;;;11.10;;
79664;SDS011;69132;44.014;20.918;2023-08-06T16:15:37;12.50;;;11.25;;
79664;SDS011;69132;44.014;20.918;2023-08-06T16:18:04;13.38;;;12.00;;
79664;SDS011;69132;44.014;20.918;2023-08-06T16:20:30;12.90;;;11.68;;
79664;SDS011;69132;44.014;20.918;2023-08-06T16:22:57;12.50;;;11.20;;
79664;SDS011;69132;44.014;20.918;2023-08-06T16:25:23;13.60;;;12.18;;
79664;SDS011;69132;44.014;20.918;2023-08-06T16:27:50;12.90;;;11.23;;
79664;SDS011;69132;44.014;20.918;2023-08-06T16:30:16;14.07;;;11.77;;
79664;SDS011;69132;44.014;20.918;2023-08-06T16:32:45;12.35;;;11.07;;
79664;SDS011;69132;44.014;20.918;2023-08-06T16:35:11;12.82;;;10.93;;
79664;SDS011;69132;44.014;20.918;2023-08-06T16:37:38;13.07;;;11.75;;
79664;SDS011;69132;44.014;20.918;2023-08-06T16:40:05;9.70;;;8.73;;
79664;SDS011;69132;44.014;20.918;2023-08-06T16:42:34;10.80;;;9.02;;
79664;SDS011;69132;44.014;20.918;2023-08-06T16:45:00;10.98;;;9.98;;
79664;SDS011;69132;44.014;20.918;2023-08-06T16:47:29;9.90;;;9.02;;
79664;SDS011;69132;44.014;20.918;2023-08-06T16:49:56;9.40;;;8.43;;
79664;SDS011;69132;44.014;20.918;2023-08-06T16:52:23;8.80;;;8.00;;
79664;SDS011;69132;44.014;20.918;2023-08-06T16:54:56;8.75;;;7.95;;
79664;SDS011;69132;44.014;20.918;2023-08-06T16:57:24;10.40;;;9.50;;
79664;SDS011;69132;44.014;20.918;2023-08-06T16:59:53;10.70;;;9.70;;
79664;SDS011;69132;44.014;20.918;2023-08-06T17:02:19;6.60;;;6.07;;
79664;SDS011;69132;44.014;20.918;2023-08-06T17:04:45;6.35;;;5.70;;
79664;SDS011;69132;44.014;20.918;2023-08-06T17:07:12;7.38;;;6.60;;
79664;SDS011;69132;44.014;20.918;2023-08-06T17:09:38;9.60;;;7.60;;
79664;SDS011;69132;44.014;20.918;2023-08-06T17:12:04;8.70;;;7.90;;
79664;SDS011;69132;44.014;20.918;2023-08-06T17:14:31;14.35;;;7.10;;
79664;SDS011;69132;44.014;20.918;2023-08-06T17:16:57;12.03;;;7.40;;
79664;SDS011;69132;44.014;20.918;2023-08-06T17:19:25;7.38;;;6.53;;
79664;SDS011;69132;44.014;20.918;2023-08-06T17:21:51;7.05;;;6.35;;
79664;SDS011;69132;44.014;20.918;2023-08-06T17:24:17;8.48;;;6.70;;
79664;SDS011;69132;44.014;20.918;2023-08-06T17:26:44;9.15;;;6.68;;
79664;SDS011;69132;44.014;20.918;2023-08-06T17:29:10;8.88;;;8.05;;
79664;SDS011;69132;44.014;20.918;2023-08-06T17:31:36;8.30;;;7.50;;
79664;SDS011;69132;44.014;20.918;2023-08-06T17:34:02;8.82;;;7.10;;
79664;SDS011;69132;44.014;20.918;2023-08-06T17:36:28;8.65;;;7.85;;
79664;SDS011;69132;44.014;20.918;2023-08-06T17:38:56;8.60;;;7.80;;
79664;SDS011;69132;44.014;20.918;2023-08-06T17:41:22;6.82;;;6.28;;
79664;SDS011;69132;44.014;20.918;2023-08-06T17:43:48;7.45;;;5.93;;
79664;SDS011;69132;44.014;20.918;2023-08-06T17:46:15;6.45;;;5.40;;
79664;SDS011;69132;44.014;20.918;2023-08-06T17:48:41;5.75;;;5.25;;
79664;SDS011;69132;44.014;20.918;2023-08-06T17:51:07;6.25;;;5.53;;
79664;SDS011;69132;44.014;20.918;2023-08-06T17:53:34;7.03;;;6.05;;
79664;SDS011;69132;44.014;20.918;2023-08-06T17:56:00;6.07;;;5.57;;
79664;SDS011;69132;44.014;20.918;2023-08-06T17:58:27;6.15;;;5.22;;
79664;SDS011;69132;44.014;20.918;2023-08-06T18:00:54;6.28;;;5.68;;
79664;SDS011;69132;44.014;20.918;2023-08-06T18:03:20;6.22;;;5.72;;
79664;SDS011;69132;44.014;20.918;2023-08-06T18:05:53;6.18;;;5.63;;
79664;SDS011;69132;44.014;20.918;2023-08-06T18:08:20;6.63;;;6.03;;
79664;SDS011;69132;44.014;20.918;2023-08-06T18:10:49;5.90;;;5.38;;
79664;SDS011;69132;44.014;20.918;2023-08-06T18:13:15;7.78;;;4.95;;
79664;SDS011;69132;44.014;20.918;2023-08-06T18:15:42;5.68;;;5.05;;
79664;SDS011;69132;44.014;20.918;2023-08-06T18:18:08;5.45;;;3.92;;
79664;SDS011;69132;44.014;20.918;2023-08-06T18:20:35;5.10;;;4.60;;
79664;SDS011;69132;44.014;20.918;2023-08-06T18:23:03;4.97;;;3.63;;
79664;SDS011;69132;44.014;20.918;2023-08-06T18:25:32;3.90;;;3.40;;
79664;SDS011;69132;44.014;20.918;2023-08-06T18:27:59;4.87;;;4.37;;
79664;SDS011;69132;44.014;20.918;2023-08-06T18:30:25;5.40;;;3.80;;
79664;SDS011;69132;44.014;20.918;2023-08-06T18:32:51;5.03;;;3.67;;
79664;SDS011;69132;44.014;20.918;2023-08-06T18:35:20;3.72;;;3.08;;
79664;SDS011;69132;44.014;20.918;2023-08-06T18:37:46;4.43;;;3.58;;
79664;SDS011;69132;44.014;20.918;2023-08-06T18:40:13;5.40;;;4.18;;
79664;SDS011;69132;44.014;20.918;2023-08-06T18:42:41;3.42;;;3.10;;
79664;SDS011;69132;44.014;20.918;2023-08-06T18:45:09;3.30;;;2.40;;
79664;SDS011;69132;44.014;20.918;2023-08-06T18:47:40;4.10;;;2.40;;
79664;SDS011;69132;44.014;20.918;2023-08-06T18:50:06;2.90;;;2.20;;
79664;SDS011;69132;44.014;20.918;2023-08-06T18:52:33;3.30;;;2.30;;
79664;SDS011;69132;44.014;20.918;2023-08-06T18:54:59;1.92;;;1.70;;
79664;SDS011;69132;44.014;20.918;2023-08-06T18:57:25;2.15;;;1.60;;
79664;SDS011;69132;44.014;20.918;2023-08-06T18:59:55;2.20;;;1.33;;
79664;SDS011;69132;44.014;20.918;2023-08-06T19:02:21;3.28;;;1.60;;
79664;SDS011;69132;44.014;20.918;2023-08-06T19:04:47;2.58;;;2.20;;
79664;SDS011;69132;44.014;20.918;2023-08-06T19:07:15;3.60;;;2.20;;
79664;SDS011;69132;44.014;20.918;2023-08-06T19:09:41;2.92;;;1.80;;
79664;SDS011;69132;44.014;20.918;2023-08-06T19:12:12;2.80;;;1.80;;
79664;SDS011;69132;44.014;20.918;2023-08-06T19:14:40;2.75;;;1.90;;
79664;SDS011;69132;44.014;20.918;2023-08-06T19:17:06;2.17;;;1.60;;
79664;SDS011;69132;44.014;20.918;2023-08-06T19:19:33;3.63;;;1.67;;
79664;SDS011;69132;44.014;20.918;2023-08-06T19:22:01;4.20;;;1.95;;
79664;SDS011;69132;44.014;20.918;2023-08-06T19:24:27;4.70;;;2.03;;
79664;SDS011;69132;44.014;20.918;2023-08-06T19:26:54;3.85;;;1.80;;
79664;SDS011;69132;44.014;20.918;2023-08-06T19:29:20;2.97;;;1.60;;
79664;SDS011;69132;44.014;20.918;2023-08-06T19:31:47;2.58;;;1.70;;
79664;SDS011;69132;44.014;20.918;2023-08-06T19:34:14;1.50;;;1.27;;
79664;SDS011;69132;44.014;20.918;2023-08-06T19:36:42;1.73;;;1.63;;
79664;SDS011;69132;44.014;20.918;2023-08-06T19:41:35;4.22;;;2.20;;
79664;SDS011;69132;44.014;20.918;2023-08-06T19:44:01;4.72;;;2.35;;
79664;SDS011;69132;44.014;20.918;2023-08-06T19:46:34;3.53;;;2.42;;
79664;SDS011;69132;44.014;20.918;2023-08-06T19:49:00;3.83;;;1.70;;
79664;SDS011;69132;44.014;20.918;2023-08-06T19:51:27;3.75;;;1.90;;
79664;SDS011;69132;44.014;20.918;2023-08-06T19:53:56;4.93;;;1.77;;
79664;SDS011;69132;44.014;20.918;2023-08-06T19:56:22;2.83;;;2.10;;
79664;SDS011;69132;44.014;20.918;2023-08-06T19:58:48;2.88;;;2.05;;
79664;SDS011;69132;44.014;20.918;2023-08-06T20:01:14;3.63;;;1.73;;
79664;SDS011;69132;44.014;20.918;2023-08-06T20:03:42;3.50;;;1.90;;
79664;SDS011;69132;44.014;20.918;2023-08-06T20:08:38;4.38;;;2.63;;
79664;SDS011;69132;44.014;20.918;2023-08-06T20:11:05;5.75;;;1.95;;
79664;SDS011;69132;44.014;20.918;2023-08-06T20:13:31;3.85;;;2.00;;
79664;SDS011;69132;44.014;20.918;2023-08-06T20:15:58;4.20;;;2.17;;
79664;SDS011;69132;44.014;20.918;2023-08-06T20:18:26;4.80;;;1.55;;
79664;SDS011;69132;44.014;20.918;2023-08-06T20:20:53;2.00;;;1.40;;
79664;SDS011;69132;44.014;20.918;2023-08-06T20:23:19;3.15;;;1.48;;
79664;SDS011;69132;44.014;20.918;2023-08-06T20:25:45;5.35;;;1.80;;
79664;SDS011;69132;44.014;20.918;2023-08-06T20:28:13;2.78;;;1.15;;
79664;SDS011;69132;44.014;20.918;2023-08-06T20:30:42;5.68;;;1.60;;
79664;SDS011;69132;44.014;20.918;2023-08-06T20:33:08;4.82;;;2.28;;
79664;SDS011;69132;44.014;20.918;2023-08-06T20:35:38;8.50;;;6.07;;
79664;SDS011;69132;44.014;20.918;2023-08-06T20:38:05;3.22;;;2.13;;
79664;SDS011;69132;44.014;20.918;2023-08-06T20:40:31;2.78;;;1.88;;
79664;SDS011;69132;44.014;20.918;2023-08-06T20:42:57;4.30;;;2.15;;
79664;SDS011;69132;44.014;20.918;2023-08-06T20:45:24;2.83;;;1.30;;
79664;SDS011;69132;44.014;20.918;2023-08-06T20:47:53;2.45;;;1.65;;
79664;SDS011;69132;44.014;20.918;2023-08-06T20:50:21;2.97;;;1.60;;
79664;SDS011;69132;44.014;20.918;2023-08-06T20:52:47;4.47;;;1.85;;
79664;SDS011;69132;44.014;20.918;2023-08-06T20:55:13;3.65;;;2.65;;
79664;SDS011;69132;44.014;20.918;2023-08-06T20:57:39;4.07;;;1.50;;
79664;SDS011;69132;44.014;20.918;2023-08-06T21:00:06;3.28;;;1.50;;
79664;SDS011;69132;44.014;20.918;2023-08-06T21:02:32;7.03;;;2.35;;
79664;SDS011;69132;44.014;20.918;2023-08-06T21:04:59;3.78;;;2.20;;
79664;SDS011;69132;44.014;20.918;2023-08-06T21:07:26;3.83;;;1.90;;
79664;SDS011;69132;44.014;20.918;2023-08-06T21:09:52;2.97;;;1.63;;
79664;SDS011;69132;44.014;20.918;2023-08-06T21:12:20;3.67;;;2.13;;
79664;SDS011;69132;44.014;20.918;2023-08-06T21:14:47;4.47;;;2.08;;
79664;SDS011;69132;44.014;20.918;2023-08-06T21:17:13;2.80;;;1.13;;
79664;SDS011;69132;44.014;20.918;2023-08-06T21:19:39;2.60;;;1.50;;
79664;SDS011;69132;44.014;20.918;2023-08-06T21:22:06;3.90;;;1.50;;
79664;SDS011;69132;44.014;20.918;2023-08-06T21:24:34;3.60;;;1.93;;
79664;SDS011;69132;44.014;20.918;2023-08-06T21:27:01;2.20;;;1.75;;
79664;SDS011;69132;44.014;20.918;2023-08-06T21:29:27;5.78;;;1.42;;
79664;SDS011;69132;44.014;20.918;2023-08-06T21:31:55;2.20;;;2.00;;
79664;SDS011;69132;44.014;20.918;2023-08-06T21:34:22;2.53;;;2.13;;
79664;SDS011;69132;44.014;20.918;2023-08-06T21:36:48;5.20;;;3.67;;
79664;SDS011;69132;44.014;20.918;2023-08-06T21:39:18;3.28;;;1.88;;
79664;SDS011;69132;44.014;20.918;2023-08-06T21:41:44;5.57;;;2.58;;
79664;SDS011;69132;44.014;20.918;2023-08-06T21:44:10;2.17;;;1.80;;
79664;SDS011;69132;44.014;20.918;2023-08-06T21:46:36;2.80;;;1.90;;
79664;SDS011;69132;44.014;20.918;2023-08-06T21:49:03;2.50;;;1.83;;